Time;durP1;ratioP1;P1;durP2;ratioP2;P2;SDS_P1;SDS_P2;PMS_P1;PMS_P2;Temp;Humidity;BMP_temperature;BMP_pressure;BME280_temperature;BME280_humidity;BME280_pressure;Samples;Min_cycle;Max_cycle;Signal;HPM_P1;HPM_P2
2021/03/02 00:01:55;;;;;;;4.90;4.50;;;20.00;40.80;;;;;;5077039;28;20477;-73
2021/03/02 00:04:22;;;;;;;4.10;3.77;;;20.00;40.70;;;;;;5072803;28;20480;-71
2021/03/02 00:06:49;;;;;;;4.30;4.10;;;20.00;40.70;;;;;;5105971;27;20481;-72
2021/03/02 00:09:16;;;;;;;4.30;4.10;;;20.00;40.60;;;;;;5079405;28;20488;-72
2021/03/02 00:11:43;;;;;;;4.03;3.80;;;20.00;41.00;;;;;;5074082;28;20534;-72
2021/03/02 00:14:09;;;;;;;4.13;3.93;;;19.90;41.10;;;;;;5076698;28;20496;-72
2021/03/02 00:16:35;;;;;;;4.20;3.90;;;19.90;41.10;;;;;;5077612;28;20469;-72
2021/03/02 00:19:13;;;;;;;4.07;3.80;;;19.80;41.00;;;;;;5079114;28;20489;-71
2021/03/02 00:21:40;;;;;;;5.03;4.13;;;19.80;41.10;;;;;;5065656;28;20488;-72
2021/03/02 00:24:09;;;;;;;3.57;3.37;;;19.80;41.30;;;;;;5073729;28;20497;-72
2021/03/02 00:26:36;;;;;;;3.70;3.50;;;19.90;41.40;;;;;;5065517;28;20492;-71
2021/03/02 00:29:04;;;;;;;3.57;3.27;;;19.80;41.20;;;;;;5103354;28;20502;-72
2021/03/02 00:31:31;;;;;;;3.87;3.57;;;19.80;41.20;;;;;;5106948;27;20508;-73
2021/03/02 00:33:57;;;;;;;3.37;3.17;;;19.80;41.30;;;;;;5111056;28;20465;-73
2021/03/02 00:36:23;;;;;;;3.77;3.57;;;19.80;41.10;;;;;;5100253;28;20491;-72
2021/03/02 00:38:50;;;;;;;4.53;4.13;;;19.80;41.30;;;;;;5082332;28;21177;-72
2021/03/02 00:41:16;;;;;;;4.00;3.70;;;19.80;41.40;;;;;;5068152;28;20488;-71
2021/03/02 00:43:42;;;;;;;3.90;3.60;;;19.80;41.40;;;;;;5071095;28;20817;-75
2021/03/02 00:46:09;;;;;;;3.20;3.00;;;19.70;41.30;;;;;;5071519;28;21024;-72
2021/03/02 00:48:35;;;;;;;3.17;3.07;;;19.80;41.10;;;;;;5071951;28;20480;-72
2021/03/02 00:51:02;;;;;;;3.30;3.20;;;19.80;41.00;;;;;;5101802;27;20489;-71
2021/03/02 00:53:28;;;;;;;3.63;3.33;;;19.80;41.10;;;;;;5078354;28;20489;-72
2021/03/02 00:55:54;;;;;;;3.70;3.50;;;19.80;41.20;;;;;;5079059;28;20481;-73
2021/03/02 00:58:21;;;;;;;3.37;3.23;;;19.70;41.10;;;;;;5078877;28;20925;-74
2021/03/02 01:00:47;;;;;;;4.10;3.73;;;19.70;41.10;;;;;;5060959;28;20478;-72
2021/03/02 01:03:14;;;;;;;3.37;3.17;;;19.80;41.10;;;;;;5072645;28;20473;-73
2021/03/02 01:05:40;;;;;;;3.20;3.00;;;19.80;41.00;;;;;;5075048;28;20573;-71
2021/03/02 01:08:07;;;;;;;2.90;2.80;;;19.80;40.90;;;;;;5078341;28;20500;-72
2021/03/02 01:10:33;;;;;;;3.43;3.13;;;19.80;40.90;;;;;;5074533;28;20473;-72
2021/03/02 01:12:59;;;;;;;3.27;3.07;;;19.80;41.00;;;;;;5082773;27;20490;-71
2021/03/02 01:15:25;;;;;;;3.63;3.43;;;19.80;41.00;;;;;;5091136;27;21004;-72
2021/03/02 01:17:52;;;;;;;3.30;3.10;;;19.70;40.80;;;;;;5079646;28;20479;-72
2021/03/02 01:20:19;;;;;;;3.57;3.27;;;19.70;40.80;;;;;;5083970;27;20491;-72
2021/03/02 01:22:45;;;;;;;3.30;3.10;;;19.70;40.80;;;;;;5076890;28;20495;-72
2021/03/02 01:25:12;;;;;;;3.63;3.40;;;19.80;40.80;;;;;;5078751;27;20513;-73
2021/03/02 01:27:38;;;;;;;3.30;3.10;;;19.80;40.70;;;;;;5093172;27;21191;-72
2021/03/02 01:30:06;;;;;;;3.83;3.63;;;19.80;40.70;;;;;;5076897;28;20526;-71
2021/03/02 01:32:32;;;;;;;3.60;3.43;;;19.80;40.70;;;;;;5079550;28;22203;-71
2021/03/02 01:34:59;;;;;;;3.20;3.00;;;19.70;40.80;;;;;;5073603;28;21000;-72
2021/03/02 01:37:26;;;;;;;3.80;3.60;;;19.70;40.70;;;;;;5075531;28;20488;-71
2021/03/02 01:39:52;;;;;;;3.30;3.10;;;19.70;40.80;;;;;;5076542;28;20506;-72
2021/03/02 01:42:18;;;;;;;3.47;3.27;;;19.70;41.00;;;;;;5075339;28;20488;-72
2021/03/02 01:44:44;;;;;;;3.93;3.73;;;19.70;41.00;;;;;;5077616;28;20481;-73
2021/03/02 01:47:10;;;;;;;3.40;3.20;;;19.70;41.00;;;;;;5078003;28;20485;-72
2021/03/02 01:49:37;;;;;;;3.40;3.10;;;19.70;41.10;;;;;;5080546;28;20518;-72
2021/03/02 01:52:03;;;;;;;3.87;3.63;;;19.70;41.00;;;;;;5074097;28;21013;-72
2021/03/02 01:54:30;;;;;;;3.57;3.30;;;19.60;41.10;;;;;;5069584;28;20493;-72
2021/03/02 01:56:56;;;;;;;4.00;3.80;;;19.60;41.10;;;;;;5072710;28;21009;-72
2021/03/02 01:59:23;;;;;;;4.23;3.73;;;19.60;41.10;;;;;;5083036;28;20480;-71
2021/03/02 02:01:50;;;;;;;3.43;3.20;;;19.60;41.00;;;;;;5075723;28;20496;-72
2021/03/02 02:04:19;;;;;;;4.30;3.90;;;19.60;41.10;;;;;;5077655;28;20892;-72
2021/03/02 02:06:48;;;;;;;3.73;3.53;;;19.60;41.10;;;;;;5074352;28;21011;-72
2021/03/02 02:09:20;;;;;;;3.67;3.43;;;19.60;40.80;;;;;;5073091;28;20492;-72
2021/03/02 02:11:51;;;;;;;4.10;3.80;;;19.60;40.80;;;;;;5064936;28;21101;-70
2021/03/02 02:14:21;;;;;;;4.60;4.20;;;19.60;40.60;;;;;;5088212;28;20485;-72
2021/03/02 02:16:48;;;;;;;3.53;3.30;;;19.60;40.50;;;;;;5077466;28;20487;-70
2021/03/02 02:19:34;;;;;;;4.17;3.87;;;19.60;40.60;;;;;;5079041;28;20874;-72
2021/03/02 02:22:08;;;;;;;5.30;3.90;;;19.70;40.80;;;;;;5075999;28;20497;-72
2021/03/02 02:24:41;;;;;;;3.20;2.90;;;19.60;40.50;;;;;;5085910;28;20531;-71
2021/03/02 02:27:08;;;;;;;3.80;3.60;;;19.70;40.70;;;;;;5083833;28;20531;-72
2021/03/02 02:29:35;;;;;;;3.50;3.30;;;19.70;40.80;;;;;;5079390;28;20481;-71
2021/03/02 02:32:02;;;;;;;4.77;4.37;;;19.70;41.50;;;;;;5076351;28;20572;-72
2021/03/02 02:34:29;;;;;;;3.07;2.97;;;19.70;40.80;;;;;;5076993;28;20514;-72
2021/03/02 02:36:57;;;;;;;3.83;3.70;;;19.70;40.80;;;;;;5074721;28;20500;-72
2021/03/02 02:39:23;;;;;;;4.07;3.77;;;19.60;40.70;;;;;;5076828;28;20515;-72
2021/03/02 02:41:49;;;;;;;3.17;3.07;;;19.70;40.80;;;;;;5073540;28;20486;-70
2021/03/02 02:44:16;;;;;;;3.50;3.30;;;19.70;41.30;;;;;;5097216;28;20481;-73
2021/03/02 02:46:43;;;;;;;3.60;3.40;;;19.70;40.30;;;;;;5076584;28;20489;-73
2021/03/02 02:49:09;;;;;;;4.20;3.90;;;19.60;40.20;;;;;;5082857;28;20552;-72
2021/03/02 02:51:36;;;;;;;3.57;3.37;;;19.70;40.60;;;;;;5077914;28;20469;-72
2021/03/02 02:54:03;;;;;;;3.80;3.50;;;19.70;41.20;;;;;;5087817;28;20504;-71
2021/03/02 02:56:29;;;;;;;3.50;3.30;;;19.70;40.10;;;;;;5077446;28;20534;-72
2021/03/02 02:59:00;;;;;;;4.13;3.87;;;19.70;40.10;;;;;;5088557;28;20492;-72
2021/03/02 03:01:28;;;;;;;3.83;3.53;;;19.70;40.20;;;;;;5079373;28;20480;-72
2021/03/02 03:03:55;;;;;;;3.43;3.33;;;19.70;40.30;;;;;;5082331;28;20485;-73
2021/03/02 03:06:21;;;;;;;3.90;3.70;;;19.70;40.20;;;;;;5080311;28;20968;-72
2021/03/02 03:08:49;;;;;;;4.20;3.90;;;19.70;40.40;;;;;;5080791;28;20485;-73
2021/03/02 03:11:16;;;;;;;4.20;3.80;;;19.70;40.20;;;;;;5079770;28;21310;-72
2021/03/02 03:13:43;;;;;;;3.97;3.73;;;19.70;39.90;;;;;;5084728;28;21189;-72
2021/03/02 03:16:09;;;;;;;3.93;3.50;;;19.70;40.10;;;;;;5088442;27;20486;-72
2021/03/02 03:18:42;;;;;;;3.30;3.10;;;19.70;40.10;;;;;;5089791;27;20465;-72
2021/03/02 03:21:08;;;;;;;4.10;3.80;;;19.80;40.30;;;;;;5073307;28;20508;-73
2021/03/02 03:23:34;;;;;;;4.40;4.00;;;19.80;40.10;;;;;;5088970;28;21007;-71
2021/03/02 03:26:00;;;;;;;4.80;4.50;;;19.80;40.00;;;;;;5075717;28;20481;-72
2021/03/02 03:28:27;;;;;;;3.93;3.63;;;19.80;39.70;;;;;;5079456;28;20538;-72
2021/03/02 03:30:53;;;;;;;4.37;4.07;;;19.80;39.50;;;;;;5085141;28;20513;-72
2021/03/02 03:33:19;;;;;;;4.50;4.10;;;19.80;39.60;;;;;;5067563;28;20898;-70
2021/03/02 03:35:46;;;;;;;4.30;4.00;;;19.80;39.70;;;;;;5083543;28;20473;-72
2021/03/02 03:38:12;;;;;;;6.20;3.73;;;19.70;39.60;;;;;;5078474;28;20515;-72
2021/03/02 03:40:39;;;;;;;4.83;4.20;;;19.70;39.90;;;;;;5076076;28;20468;-72
2021/03/02 03:43:05;;;;;;;5.47;3.80;;;19.70;40.00;;;;;;5077660;28;21976;-72
2021/03/02 03:45:31;;;;;;;4.63;4.30;;;19.70;39.90;;;;;;5086000;28;20519;-72
2021/03/02 03:47:58;;;;;;;4.13;3.83;;;19.70;40.10;;;;;;5069935;27;20476;-72
2021/03/02 03:50:24;;;;;;;4.03;3.73;;;19.70;40.00;;;;;;5118497;27;20495;-72
2021/03/02 03:52:53;;;;;;;4.97;4.67;;;19.70;40.10;;;;;;5083947;27;20474;-71
2021/03/02 03:55:20;;;;;;;4.93;4.53;;;19.70;39.90;;;;;;5093591;27;21035;-72
2021/03/02 03:57:46;;;;;;;4.37;4.00;;;19.60;39.60;;;;;;5079613;28;20932;-72
2021/03/02 04:00:14;;;;;;;4.77;4.47;;;19.70;39.40;;;;;;5075550;28;20546;-72
2021/03/02 04:02:40;;;;;;;5.03;4.63;;;19.60;39.20;;;;;;5071129;28;20510;-73
2021/03/02 04:05:07;;;;;;;4.33;4.03;;;19.60;39.10;;;;;;5081417;28;20567;-73
2021/03/02 04:07:33;;;;;;;5.17;4.77;;;19.70;39.30;;;;;;5078746;28;20496;-72
2021/03/02 04:10:00;;;;;;;5.43;4.93;;;19.70;39.20;;;;;;5079576;28;20485;-73
2021/03/02 04:12:36;;;;;;;5.17;4.67;;;19.70;39.20;;;;;;5072693;28;20491;-73
2021/03/02 04:15:03;;;;;;;4.47;4.10;;;19.70;39.40;;;;;;5106492;28;20488;-73
2021/03/02 04:17:29;;;;;;;4.97;4.43;;;19.70;39.40;;;;;;5109785;28;20488;-73
2021/03/02 04:19:58;;;;;;;4.80;4.60;;;19.70;39.50;;;;;;5111767;27;20472;-74
2021/03/02 04:22:24;;;;;;;4.77;4.47;;;19.70;39.50;;;;;;5107858;28;20476;-72
2021/03/02 04:24:50;;;;;;;4.83;4.47;;;19.60;39.70;;;;;;5081401;28;21019;-72
2021/03/02 04:27:17;;;;;;;4.40;4.20;;;19.60;39.60;;;;;;5080606;28;20469;-72
2021/03/02 04:29:43;;;;;;;4.90;4.50;;;19.60;39.60;;;;;;5079523;28;20484;-72
2021/03/02 04:32:10;;;;;;;4.60;4.30;;;19.60;39.50;;;;;;5080550;27;20480;-73
2021/03/02 04:34:36;;;;;;;5.10;4.70;;;19.60;39.10;;;;;;5083971;27;20522;-71
2021/03/02 04:37:02;;;;;;;4.70;4.37;;;19.60;38.90;;;;;;5078526;28;20503;-72
2021/03/02 04:39:28;;;;;;;5.80;5.23;;;19.60;39.00;;;;;;5079203;28;20488;-73
2021/03/02 04:41:54;;;;;;;5.97;5.40;;;19.60;39.10;;;;;;5082737;27;20536;-73
2021/03/02 04:44:22;;;;;;;5.57;5.17;;;19.60;39.10;;;;;;5094232;27;20481;-72
2021/03/02 04:46:48;;;;;;;5.40;5.00;;;19.60;39.10;;;;;;5082848;28;20480;-71
2021/03/02 04:49:14;;;;;;;4.80;4.40;;;19.50;38.80;;;;;;5070491;28;20501;-72
2021/03/02 04:51:40;;;;;;;4.87;4.53;;;19.50;39.10;;;;;;5099070;27;20507;-73
2021/03/02 04:54:06;;;;;;;5.27;4.63;;;19.40;39.10;;;;;;5075124;28;20494;-72
2021/03/02 04:56:33;;;;;;;4.70;4.30;;;19.40;39.20;;;;;;5077974;28;20492;-72
2021/03/02 04:58:59;;;;;;;5.20;4.70;;;19.40;39.40;;;;;;5096348;27;20513;-73
2021/03/02 05:01:26;;;;;;;6.67;5.47;;;19.40;39.00;;;;;;5084771;27;21086;-73
2021/03/02 05:03:52;;;;;;;5.10;4.40;;;19.40;38.90;;;;;;5066876;28;20477;-72
2021/03/02 05:06:18;;;;;;;5.47;5.00;;;19.30;38.90;;;;;;5072528;28;20485;-71
2021/03/02 05:08:44;;;;;;;5.43;5.00;;;19.30;38.90;;;;;;5070737;28;20531;-72
2021/03/02 05:11:11;;;;;;;6.50;4.80;;;19.30;39.00;;;;;;5077977;28;20495;-72
2021/03/02 05:13:37;;;;;;;8.63;5.23;;;19.30;38.90;;;;;;5077024;28;20534;-73
2021/03/02 05:16:03;;;;;;;6.70;5.03;;;19.30;38.90;;;;;;5077199;28;20493;-72
2021/03/02 05:18:30;;;;;;;6.03;5.43;;;19.30;38.70;;;;;;5069482;28;20496;-73
2021/03/02 05:20:57;;;;;;;5.17;4.67;;;19.30;38.60;;;;;;5093297;27;20480;-72
2021/03/02 05:23:23;;;;;;;8.90;5.50;;;19.30;38.90;;;;;;5074915;28;20467;-72
2021/03/02 05:25:49;;;;;;;6.40;5.00;;;19.30;38.90;;;;;;5085517;28;20496;-72
2021/03/02 05:28:15;;;;;;;6.70;5.67;;;19.30;38.90;;;;;;5085411;27;20528;-70
2021/03/02 05:30:41;;;;;;;5.50;5.10;;;19.30;38.80;;;;;;5095418;27;21508;-72
2021/03/02 05:33:08;;;;;;;5.83;5.43;;;19.30;38.60;;;;;;5076485;28;20481;-71
2021/03/02 05:35:35;;;;;;;7.17;5.67;;;19.30;38.80;;;;;;5077754;28;20480;-72
2021/03/02 05:38:01;;;;;;;6.80;5.40;;;19.20;38.70;;;;;;5075241;27;20487;-71
2021/03/02 05:40:27;;;;;;;5.23;4.87;;;19.20;38.70;;;;;;5070066;28;20484;-73
2021/03/02 05:42:53;;;;;;;7.23;5.80;;;19.20;38.60;;;;;;5069726;28;20915;-73
2021/03/02 05:45:20;;;;;;;6.90;5.30;;;19.20;38.50;;;;;;5073392;28;20496;-73
2021/03/02 05:47:46;;;;;;;6.40;5.10;;;19.20;38.50;;;;;;5092940;27;20479;-72
2021/03/02 05:50:13;;;;;;;6.97;5.50;;;19.30;38.40;;;;;;5072515;28;20489;-72
2021/03/02 05:52:40;;;;;;;7.37;5.00;;;19.20;38.10;;;;;;5073871;28;20484;-71
2021/03/02 05:55:07;;;;;;;6.17;5.30;;;19.20;38.40;;;;;;5077582;27;20567;-72
2021/03/02 05:57:33;;;;;;;6.60;5.10;;;19.30;38.50;;;;;;5084855;27;20867;-72
2021/03/02 06:00:00;;;;;;;7.33;5.93;;;19.30;38.00;;;;;;5096320;27;20538;-72
2021/03/02 06:02:26;;;;;;;6.80;5.23;;;19.40;37.40;;;;;;5074088;28;21416;-72
2021/03/02 06:04:53;;;;;;;6.17;5.57;;;19.50;37.50;;;;;;5073199;28;20473;-73
2021/03/02 06:07:19;;;;;;;7.57;5.77;;;19.60;37.50;;;;;;5093830;27;20548;-72
2021/03/02 06:09:46;;;;;;;6.50;5.70;;;19.60;37.50;;;;;;5072707;28;20514;-73
2021/03/02 06:12:12;;;;;;;6.00;5.40;;;19.60;37.50;;;;;;5097025;27;20495;-73
2021/03/02 06:14:38;;;;;;;6.03;5.53;;;19.60;37.30;;;;;;5073274;28;20480;-73
2021/03/02 06:17:05;;;;;;;6.93;6.07;;;19.60;37.20;;;;;;5072764;28;20511;-72
2021/03/02 06:19:39;;;;;;;7.77;5.10;;;19.70;36.70;;;;;;5078598;28;20488;-72
2021/03/02 06:22:05;;;;;;;6.50;5.87;;;19.70;36.90;;;;;;5068617;28;20486;-71
2021/03/02 06:24:38;;;;;;;7.23;6.20;;;19.70;37.60;;;;;;5074747;28;21507;-71
2021/03/02 06:27:12;;;;;;;8.60;6.13;;;19.70;36.90;;;;;;5068596;28;20871;-73
2021/03/02 06:29:39;;;;;;;7.33;6.23;;;19.70;37.60;;;;;;5069190;28;20488;-72
2021/03/02 06:32:05;;;;;;;7.23;6.13;;;19.70;37.60;;;;;;5075608;28;21576;-72
2021/03/02 06:34:32;;;;;;;10.67;6.60;;;19.70;37.60;;;;;;5080596;28;21384;-71
2021/03/02 06:36:59;;;;;;;6.63;5.90;;;19.70;37.60;;;;;;5078168;28;20503;-72
2021/03/02 06:39:28;;;;;;;7.47;5.97;;;19.70;37.70;;;;;;5082670;28;20487;-72
2021/03/02 06:42:13;;;;;;;10.07;6.80;;;19.70;37.60;;;;;;5081756;28;20575;-73
2021/03/02 06:44:40;;;;;;;9.20;6.70;;;19.70;37.60;;;;;;5073503;28;20499;-73
2021/03/02 06:47:06;;;;;;;10.27;7.53;;;19.70;37.60;;;;;;5080843;28;20492;-73
2021/03/02 06:49:39;;;;;;;7.77;7.07;;;19.60;36.70;;;;;;5078779;28;20489;-72
2021/03/02 06:52:16;;;;;;;10.83;6.90;;;19.70;36.40;;;;;;5071146;28;20488;-73
2021/03/02 06:54:42;;;;;;;11.73;6.60;;;19.70;36.60;;;;;;5083919;27;20546;-73
2021/03/02 06:57:08;;;;;;;9.30;6.33;;;19.80;36.60;;;;;;5102919;27;20474;-73
2021/03/02 06:59:35;;;;;;;8.83;6.70;;;19.80;37.00;;;;;;5081256;28;20473;-72
2021/03/02 07:02:01;;;;;;;6.80;5.67;;;19.80;37.60;;;;;;5072895;28;20496;-73
2021/03/02 07:04:28;;;;;;;8.40;7.23;;;19.80;37.30;;;;;;5073734;28;20488;-74
2021/03/02 07:06:56;;;;;;;9.03;6.30;;;19.90;37.30;;;;;;5077354;28;20485;-73
2021/03/02 07:09:22;;;;;;;6.67;6.07;;;19.90;37.60;;;;;;5071679;28;21547;-73
2021/03/02 07:11:49;;;;;;;10.17;6.67;;;19.90;37.50;;;;;;5081132;27;20480;-72
2021/03/02 07:14:15;;;;;;;9.37;7.13;;;20.00;37.90;;;;;;5078785;28;20613;-72
2021/03/02 07:16:43;;;;;;;9.37;6.20;;;19.90;37.80;;;;;;5076603;28;20473;-73
2021/03/02 07:19:10;;;;;;;10.63;7.30;;;19.90;37.80;;;;;;5071675;28;20484;-73
2021/03/02 07:21:37;;;;;;;6.53;5.57;;;19.90;37.80;;;;;;5092428;27;20488;-72
2021/03/02 07:24:04;;;;;;;9.57;6.13;;;19.90;38.60;;;;;;5078023;28;20496;-72
2021/03/02 07:26:32;;;;;;;7.73;5.77;;;19.80;37.70;;;;;;5078402;28;20487;-74
2021/03/02 07:28:58;;;;;;;8.80;6.63;;;19.90;37.80;;;;;;5072196;28;20484;-73
2021/03/02 07:31:24;;;;;;;10.43;7.20;;;19.90;37.80;;;;;;5076011;27;20494;-73
2021/03/02 07:33:51;;;;;;;10.80;7.27;;;19.80;37.70;;;;;;5086357;27;20476;-73
2021/03/02 07:36:18;;;;;;;10.93;7.37;;;19.80;37.70;;;;;;5079278;27;20496;-73
2021/03/02 07:38:44;;;;;;;14.17;8.50;;;19.80;37.80;;;;;;5071953;28;20514;-74
2021/03/02 07:41:10;;;;;;;11.37;7.00;;;19.70;37.60;;;;;;5077762;28;20484;-73
2021/03/02 07:43:37;;;;;;;11.83;8.07;;;19.70;37.60;;;;;;5076720;28;20480;-74
2021/03/02 07:46:19;;;;;;;13.67;7.90;;;19.70;37.60;;;;;;5078557;28;20497;-72
2021/03/02 07:48:45;;;;;;;14.30;8.37;;;19.60;37.50;;;;;;5076981;28;20476;-73
2021/03/02 07:51:20;;;;;;;11.30;7.60;;;19.60;37.50;;;;;;5071925;28;20492;-73
2021/03/02 07:53:46;;;;;;;16.03;8.67;;;19.50;37.40;;;;;;5080168;28;20490;-73
2021/03/02 07:56:25;;;;;;;14.50;10.23;;;19.60;37.50;;;;;;5077362;28;20485;-73
2021/03/02 07:59:17;;;;;;;12.13;8.00;;;19.70;37.70;;;;;;5071769;28;20476;-73
2021/03/02 08:01:44;;;;;;;13.17;8.17;;;19.70;37.70;;;;;;5076607;28;20583;-74
2021/03/02 08:04:26;;;;;;;13.17;8.57;;;19.80;37.70;;;;;;5096988;28;20498;-74
2021/03/02 08:06:55;;;;;;;9.73;7.30;;;19.80;37.80;;;;;;5109384;28;20502;-73
2021/03/02 08:09:28;;;;;;;12.30;7.70;;;19.70;37.60;;;;;;5115839;28;20492;-74
2021/03/02 08:11:55;;;;;;;13.40;8.57;;;19.70;37.60;;;;;;5098905;28;20477;-73
2021/03/02 08:14:29;;;;;;;12.90;7.20;;;19.70;37.60;;;;;;5080870;27;20487;-73
2021/03/02 08:16:57;;;;;;;12.60;8.77;;;19.70;37.60;;;;;;5083099;27;20476;-72
2021/03/02 08:19:37;;;;;;;12.63;8.10;;;19.60;37.50;;;;;;5083171;27;20498;-73
2021/03/02 08:22:26;;;;;;;9.97;7.40;;;19.60;37.50;;;;;;5068673;28;20480;-72
2021/03/02 08:24:52;;;;;;;11.53;8.13;;;19.60;37.50;;;;;;5077809;28;20472;-72
2021/03/02 08:27:36;;;;;;;11.50;7.40;;;19.60;37.50;;;;;;5075438;28;20515;-73
2021/03/02 08:30:03;;;;;;;10.40;7.30;;;19.60;37.50;;;;;;5060371;28;21516;-73
2021/03/02 08:32:29;;;;;;;9.90;7.63;;;19.70;37.60;;;;;;5073211;28;20476;-74
2021/03/02 08:34:56;;;;;;;18.63;7.90;;;19.70;37.60;;;;;;5079777;28;20481;-73
2021/03/02 08:37:38;;;;;;;13.77;7.40;;;19.80;40.50;;;;;;5063250;28;20539;-74
2021/03/02 08:40:05;;;;;;;14.90;8.00;;;19.80;40.90;;;;;;5063244;28;20476;-72
2021/03/02 08:42:32;;;;;;;16.40;7.97;;;19.90;40.00;;;;;;5068820;28;20618;-72
2021/03/02 08:45:04;;;;;;;11.87;7.40;;;19.90;38.00;;;;;;5078146;28;20492;-73
2021/03/02 08:47:30;;;;;;;9.13;7.20;;;19.90;37.80;;;;;;5077225;28;20484;-72
2021/03/02 08:49:56;;;;;;;8.50;7.60;;;19.90;37.80;;;;;;5103375;27;20482;-73
2021/03/02 08:52:23;;;;;;;8.13;6.90;;;19.80;37.70;;;;;;5079274;27;20481;-73
2021/03/02 08:54:50;;;;;;;12.17;7.70;;;19.80;37.70;;;;;;5072535;28;20464;-72
2021/03/02 08:57:16;;;;;;;11.03;7.57;;;19.90;37.80;;;;;;5096602;27;20539;-72
2021/03/02 08:59:43;;;;;;;15.53;7.00;;;19.80;37.70;;;;;;5080662;28;20526;-73
2021/03/02 09:02:09;;;;;;;10.33;7.10;;;19.80;37.80;;;;;;5079139;27;20493;-73
2021/03/02 09:04:35;;;;;;;10.30;7.77;;;19.80;37.70;;;;;;5077391;27;20489;-72
2021/03/02 09:07:01;;;;;;;11.10;7.27;;;19.90;37.80;;;;;;5077990;28;20496;-72
2021/03/02 09:09:28;;;;;;;17.60;7.53;;;19.90;38.00;;;;;;5079315;27;20492;-75
2021/03/02 09:11:56;;;;;;;11.10;7.50;;;19.90;38.20;;;;;;5076032;28;20516;-73
2021/03/02 09:14:23;;;;;;;10.77;8.07;;;20.00;38.00;;;;;;5074014;28;20477;-73
2021/03/02 09:16:49;;;;;;;16.57;7.37;;;20.00;37.90;;;;;;5073112;28;20871;-73
2021/03/02 09:19:21;;;;;;;12.73;7.50;;;20.00;37.90;;;;;;5085479;27;20499;-73
2021/03/02 09:21:52;;;;;;;11.50;7.00;;;20.00;37.90;;;;;;5075908;28;20529;-73
2021/03/02 09:24:19;;;;;;;12.43;7.80;;;20.00;37.90;;;;;;5072656;28;20554;-73
2021/03/02 09:26:52;;;;;;;9.30;7.50;;;19.90;38.80;;;;;;5087675;27;20492;-73
2021/03/02 09:29:19;;;;;;;11.90;7.70;;;20.00;38.60;;;;;;5095490;27;20493;-72
2021/03/02 09:31:46;;;;;;;13.63;8.10;;;20.00;38.60;;;;;;5074673;28;20489;-74
2021/03/02 09:34:13;;;;;;;15.53;8.40;;;20.00;38.50;;;;;;5078577;28;21004;-74
2021/03/02 09:36:39;;;;;;;14.90;8.60;;;20.00;38.70;;;;;;5075350;28;20503;-73
2021/03/02 09:39:18;;;;;;;13.30;7.80;;;20.00;38.70;;;;;;5075113;28;21331;-73
2021/03/02 09:41:45;;;;;;;7.73;6.90;;;20.10;38.80;;;;;;5075301;28;20503;-73
2021/03/02 09:44:29;;;;;;;9.70;7.50;;;20.00;38.60;;;;;;5071897;28;20493;-72
2021/03/02 09:46:57;;;;;;;11.73;7.10;;;20.00;38.70;;;;;;5071740;28;20618;-73
2021/03/02 09:49:43;;;;;;;12.30;6.60;;;20.00;38.90;;;;;;5095889;27;20473;-73
2021/03/02 09:52:32;;;;;;;11.47;6.50;;;19.90;38.80;;;;;;5064647;28;20472;-74
2021/03/02 09:55:22;;;;;;;13.20;6.87;;;19.90;39.00;;;;;;5068101;28;20476;-72
2021/03/02 09:57:53;;;;;;;10.90;7.30;;;19.90;39.20;;;;;;5072261;27;21111;-72
2021/03/02 10:00:24;;;;;;;10.40;7.00;;;19.90;39.10;;;;;;5096329;27;21023;-72
2021/03/02 10:02:50;;;;;;;14.47;7.07;;;19.80;39.10;;;;;;5090999;27;20486;-73
2021/03/02 10:05:32;;;;;;;13.87;7.00;;;19.90;39.30;;;;;;5079978;27;20473;-73
2021/03/02 10:07:59;;;;;;;9.97;8.17;;;19.90;39.30;;;;;;5085775;27;20497;-73
2021/03/02 10:10:36;;;;;;;13.80;7.10;;;19.90;39.30;;;;;;5094025;27;20471;-73
2021/03/02 10:13:02;;;;;;;11.20;6.87;;;19.90;39.30;;;;;;5076264;27;21296;-72
2021/03/02 10:15:29;;;;;;;9.50;8.47;;;19.90;39.50;;;;;;5076509;27;20555;-73
2021/03/02 10:17:55;;;;;;;10.33;7.67;;;19.90;39.50;;;;;;5075285;28;20476;-74
2021/03/02 10:20:21;;;;;;;10.63;8.07;;;19.90;39.50;;;;;;5084613;28;20472;-73
2021/03/02 10:23:00;;;;;;;11.93;8.30;;;19.90;39.70;;;;;;5075479;28;20562;-73
2021/03/02 10:25:38;;;;;;;10.77;8.13;;;19.90;39.70;;;;;;5068037;28;20488;-73
2021/03/02 10:28:04;;;;;;;8.93;7.23;;;20.00;39.60;;;;;;5100415;27;20472;-77
2021/03/02 10:30:31;;;;;;;12.70;7.90;;;20.00;40.10;;;;;;5073923;28;20476;-78
2021/03/02 10:32:58;;;;;;;19.70;7.20;;;20.00;42.10;;;;;;5074211;28;20477;-72
2021/03/02 10:35:24;;;;;;;17.00;7.97;;;20.10;41.70;;;;;;5075028;28;20482;-72
2021/03/02 10:37:50;;;;;;;12.07;9.07;;;20.10;41.40;;;;;;5073132;28;20480;-72
2021/03/02 10:40:17;;;;;;;21.27;9.10;;;20.10;41.70;;;;;;5074108;28;20481;-73
2021/03/02 10:42:43;;;;;;;10.43;7.47;;;20.10;41.90;;;;;;5070978;28;20491;-72
2021/03/02 10:45:10;;;;;;;11.23;7.37;;;20.10;42.30;;;;;;5085877;28;20492;-75
2021/03/02 10:47:38;;;;;;;15.17;8.40;;;20.10;42.50;;;;;;5076372;28;20471;-73
2021/03/02 10:50:05;;;;;;;12.50;7.77;;;20.00;43.20;;;;;;5075519;28;20488;-72
2021/03/02 10:52:31;;;;;;;17.33;8.47;;;20.00;43.80;;;;;;5074958;28;20891;-72
2021/03/02 10:54:57;;;;;;;13.20;8.23;;;20.00;43.80;;;;;;5079332;28;20488;-73
2021/03/02 10:57:24;;;;;;;12.13;7.40;;;19.90;44.00;;;;;;5073266;28;20923;-73
2021/03/02 10:59:50;;;;;;;16.07;9.77;;;19.90;44.20;;;;;;5090341;28;20494;-73
2021/03/02 11:02:16;;;;;;;11.77;7.60;;;19.90;44.60;;;;;;5069079;28;20508;-73
2021/03/02 11:04:44;;;;;;;12.40;6.60;;;19.80;44.80;;;;;;5109103;27;20503;-73
2021/03/02 11:07:10;;;;;;;8.97;6.90;;;19.80;45.20;;;;;;5073782;28;20477;-73
2021/03/02 11:09:36;;;;;;;6.83;6.13;;;19.90;45.30;;;;;;5073487;28;20843;-73
2021/03/02 11:12:03;;;;;;;12.63;7.43;;;19.80;45.60;;;;;;5068778;28;20476;-72
2021/03/02 11:14:30;;;;;;;12.57;7.33;;;19.80;45.40;;;;;;5071571;28;20489;-73
2021/03/02 11:16:56;;;;;;;9.60;7.23;;;19.80;44.90;;;;;;5075234;28;20484;-73
2021/03/02 11:19:22;;;;;;;16.93;7.07;;;19.90;45.00;;;;;;5074523;28;20492;-73
2021/03/02 11:21:49;;;;;;;8.50;5.83;;;20.00;45.20;;;;;;5076786;27;20477;-73
2021/03/02 11:24:15;;;;;;;10.93;6.53;;;20.00;45.10;;;;;;5075211;28;20851;-73
2021/03/02 11:26:41;;;;;;;8.93;6.60;;;20.10;45.20;;;;;;5078947;28;20488;-73
2021/03/02 11:29:07;;;;;;;9.30;6.30;;;20.10;44.90;;;;;;5082176;27;20904;-73
2021/03/02 11:31:34;;;;;;;12.30;7.40;;;20.20;45.40;;;;;;5080384;28;20479;-73
2021/03/02 11:34:00;;;;;;;11.47;7.33;;;20.20;46.80;;;;;;5081258;28;20851;-73
2021/03/02 11:36:26;;;;;;;10.87;6.53;;;20.10;46.40;;;;;;5077024;28;21536;-72
2021/03/02 11:38:53;;;;;;;8.20;6.13;;;20.10;46.70;;;;;;5074929;28;20851;-74
2021/03/02 11:41:19;;;;;;;8.53;6.70;;;20.10;46.20;;;;;;5078194;28;20475;-73
2021/03/02 11:43:46;;;;;;;10.70;6.50;;;20.20;45.90;;;;;;5076995;28;20485;-74
2021/03/02 11:46:12;;;;;;;11.07;6.50;;;20.30;45.70;;;;;;5077882;28;20568;-73
2021/03/02 11:48:38;;;;;;;8.37;5.77;;;20.40;45.50;;;;;;5077183;27;20480;-73
2021/03/02 11:51:04;;;;;;;9.63;5.53;;;20.40;45.30;;;;;;5077033;28;20484;-72
2021/03/02 11:53:30;;;;;;;10.47;6.50;;;20.50;45.60;;;;;;5081434;27;20479;-73
2021/03/02 11:55:57;;;;;;;9.50;7.80;;;20.40;45.80;;;;;;5077162;28;20492;-73
2021/03/02 11:58:24;;;;;;;9.40;6.10;;;20.40;46.40;;;;;;5078606;28;20485;-73
2021/03/02 12:00:50;;;;;;;7.80;6.20;;;20.30;46.50;;;;;;5092010;27;20481;-72
2021/03/02 12:03:16;;;;;;;13.23;6.90;;;20.20;46.20;;;;;;5075714;28;20480;-75
2021/03/02 12:05:42;;;;;;;6.60;6.00;;;20.20;46.80;;;;;;5076565;28;20476;-74
2021/03/02 12:08:09;;;;;;;7.03;5.93;;;20.10;49.20;;;;;;5080339;27;20462;-70
2021/03/02 12:10:35;;;;;;;8.50;6.43;;;20.10;49.40;;;;;;5090534;27;20471;-73
2021/03/02 12:13:02;;;;;;;11.87;6.70;;;20.00;48.50;;;;;;5068383;28;21451;-73
2021/03/02 12:15:28;;;;;;;9.53;6.80;;;20.00;51.00;;;;;;5088236;28;20480;-74
2021/03/02 12:17:54;;;;;;;12.20;7.17;;;20.10;49.70;;;;;;5073347;28;20538;-74
2021/03/02 12:20:21;;;;;;;11.20;7.00;;;20.10;50.30;;;;;;5080499;28;20503;-75
2021/03/02 12:22:47;;;;;;;13.93;7.30;;;20.20;50.10;;;;;;5070227;28;20495;-73
2021/03/02 12:25:14;;;;;;;13.77;7.20;;;20.20;49.90;;;;;;5081413;27;20504;-73
2021/03/02 12:27:40;;;;;;;11.50;7.70;;;20.20;50.10;;;;;;5085308;27;20484;-74
2021/03/02 12:30:08;;;;;;;13.20;7.23;;;20.20;49.70;;;;;;5074660;28;20489;-73
2021/03/02 12:32:35;;;;;;;13.20;7.97;;;20.20;49.60;;;;;;5097393;27;20481;-73
2021/03/02 12:35:01;;;;;;;12.53;7.37;;;20.10;50.20;;;;;;5076284;28;20487;-74
2021/03/02 12:37:27;;;;;;;9.90;6.70;;;20.10;50.50;;;;;;5072464;27;20495;-73
2021/03/02 12:39:53;;;;;;;13.90;6.67;;;20.10;50.80;;;;;;5078170;28;20484;-73
2021/03/02 12:42:19;;;;;;;10.47;6.80;;;20.10;49.90;;;;;;5075043;28;20512;-73
2021/03/02 12:44:46;;;;;;;10.70;6.63;;;20.10;49.60;;;;;;5076094;27;20490;-72
2021/03/02 12:47:13;;;;;;;13.10;6.00;;;20.10;49.50;;;;;;5096413;27;20497;-72